createdAt,value
2022-08-22T00:00:53.230Z,18.17
2022-08-22T00:01:55.011Z,18.18
2022-08-22T00:02:41.538Z,23.33
2022-08-22T00:02:42.424Z,22.4
2022-08-22T00:03:04.338Z,23.32
2022-08-22T00:03:10.194Z,23.14
2022-08-22T00:03:58.442Z,18.2
2022-08-22T00:05:00.172Z,18.21
2022-08-22T00:06:05.000Z,18.22
2022-08-22T00:07:03.637Z,18.22
2022-08-22T00:08:05.359Z,18.23
2022-08-22T00:09:07.134Z,18.24
2022-08-22T00:10:08.839Z,18.23
2022-08-22T00:11:10.569Z,18.23
2022-08-22T00:12:12.310Z,18.23
2022-08-22T00:13:14.073Z,18.23
2022-08-22T00:14:15.791Z,18.23
2022-08-22T00:15:42.323Z,18.23
2022-08-22T00:16:19.250Z,18.22
2022-08-22T00:17:20.980Z,18.22
2022-08-22T00:18:22.809Z,18.22
2022-08-22T00:19:24.442Z,18.22
2022-08-22T00:20:28.196Z,18.21
2022-08-22T00:21:27.912Z,18.2
2022-08-22T00:22:29.651Z,18.2
2022-08-22T00:23:31.408Z,18.19
2022-08-22T00:24:33.111Z,18.18
2022-08-22T00:25:34.870Z,18.17
2022-08-22T00:26:36.586Z,18.17
2022-08-22T00:27:38.316Z,18.16
2022-08-22T00:28:40.093Z,18.16
2022-08-22T00:29:41.789Z,18.15
2022-08-22T00:30:43.528Z,18.14
2022-08-22T00:31:45.264Z,18.14
2022-08-22T00:32:46.994Z,18.14
2022-08-22T00:33:48.751Z,18.13
2022-08-22T00:34:50.465Z,18.13
2022-08-22T00:35:52.200Z,18.13
2022-08-22T00:36:53.937Z,18.12
2022-08-22T00:37:55.740Z,18.12
2022-08-22T00:38:57.425Z,18.12
2022-08-22T00:39:59.197Z,18.11
2022-08-22T00:41:00.872Z,18.1
2022-08-22T00:42:02.791Z,18.1
2022-08-22T00:43:04.360Z,18.09
2022-08-22T00:44:06.102Z,18.07
2022-08-22T00:45:07.813Z,18.06
2022-08-22T00:46:09.545Z,18.05
2022-08-22T00:47:11.272Z,18.04
2022-08-22T00:48:14.342Z,18.02
2022-08-22T00:49:14.768Z,18
2022-08-22T00:50:16.477Z,17.98
2022-08-22T00:51:18.225Z,17.97
2022-08-22T00:52:19.957Z,17.94
2022-08-22T00:53:21.735Z,17.92
2022-08-22T00:54:23.505Z,17.89
2022-08-22T00:55:25.171Z,17.87
2022-08-22T00:56:26.890Z,17.84
2022-08-22T00:57:28.631Z,17.81
2022-08-22T00:58:30.386Z,17.79
2022-08-22T00:59:32.108Z,17.76
2022-08-22T01:00:34.355Z,17.73
2022-08-22T01:01:35.649Z,17.71
2022-08-22T01:02:37.319Z,17.68
2022-08-22T01:03:39.069Z,17.66
2022-08-22T01:04:40.779Z,17.62
2022-08-22T01:05:42.513Z,17.6
2022-08-22T01:06:44.245Z,17.58
2022-08-22T01:07:45.988Z,17.56
2022-08-22T01:08:47.745Z,17.54
2022-08-22T01:09:49.455Z,17.52
2022-08-22T01:10:51.190Z,17.51
2022-08-22T01:11:52.930Z,17.48
2022-08-22T01:12:54.659Z,17.48
2022-08-22T01:13:56.408Z,17.47
2022-08-22T01:14:58.146Z,17.46
2022-08-22T01:15:59.861Z,17.45
2022-08-22T01:17:01.610Z,17.45
2022-08-22T01:18:03.351Z,17.44
2022-08-22T01:19:05.095Z,17.44
2022-08-22T01:20:06.819Z,17.45
2022-08-22T01:21:08.541Z,17.45
2022-08-22T01:22:10.263Z,17.45
2022-08-22T01:23:12.009Z,17.46
2022-08-22T01:24:13.766Z,17.47
2022-08-22T01:25:15.472Z,17.49
2022-08-22T01:26:17.210Z,17.5
2022-08-22T01:27:18.937Z,17.52
2022-08-22T01:28:20.668Z,17.54
2022-08-22T01:29:28.296Z,17.57
2022-08-22T01:30:24.152Z,17.6
2022-08-22T01:31:25.880Z,17.62
2022-08-22T01:32:27.638Z,17.65
2022-08-22T01:33:29.359Z,17.68
2022-08-22T01:34:31.087Z,17.71
2022-08-22T01:35:32.824Z,17.75
2022-08-22T01:36:34.557Z,17.78
2022-08-22T01:37:43.503Z,17.8
2022-08-22T01:38:38.064Z,17.82
2022-08-22T01:39:39.818Z,17.85
2022-08-22T01:40:47.598Z,17.88
2022-08-22T01:41:43.231Z,17.9
2022-08-22T01:42:44.975Z,17.92
2022-08-22T01:44:00.201Z,17.94
2022-08-22T01:44:48.443Z,17.96
2022-08-22T01:45:50.172Z,17.97
2022-08-22T01:46:51.911Z,17.98
2022-08-22T01:47:54.365Z,18
2022-08-22T01:48:55.402Z,18.01
2022-08-22T01:49:57.124Z,18.02
2022-08-22T01:50:58.852Z,18.03
2022-08-22T01:52:00.617Z,18.04
2022-08-22T01:53:02.319Z,18.04
2022-08-22T01:54:04.060Z,18.05
2022-08-22T01:55:05.783Z,18.06
2022-08-22T01:56:07.514Z,18.06
2022-08-22T01:57:09.255Z,18.06
2022-08-22T01:58:10.995Z,18.07
2022-08-22T01:59:12.733Z,18.08
2022-08-22T02:00:14.472Z,18.08
2022-08-22T02:01:16.250Z,18.09
2022-08-22T02:02:17.974Z,18.1
2022-08-22T02:03:19.701Z,18.1
2022-08-22T02:04:21.426Z,18.09
2022-08-22T02:05:23.180Z,18.1
2022-08-22T02:06:24.930Z,18.1
2022-08-22T02:07:32.186Z,18.1
2022-08-22T02:08:28.358Z,18.09
2022-08-22T02:09:30.130Z,18.08
2022-08-22T02:10:31.833Z,18.07
2022-08-22T02:11:33.535Z,18.06
2022-08-22T02:12:35.277Z,18.05
2022-08-22T02:13:37.037Z,18.03
2022-08-22T02:14:38.769Z,18.01
2022-08-22T02:15:40.545Z,17.99
2022-08-22T02:16:42.210Z,17.97
2022-08-22T02:17:43.948Z,17.94
2022-08-22T02:18:45.687Z,17.92
2022-08-22T02:19:47.418Z,17.88
2022-08-22T02:20:49.175Z,17.86
2022-08-22T02:21:50.893Z,17.84
2022-08-22T02:22:52.657Z,17.81
2022-08-22T02:23:56.041Z,17.79
2022-08-22T02:24:56.095Z,17.77
2022-08-22T02:25:57.856Z,17.75
2022-08-22T02:26:59.570Z,17.72
2022-08-22T02:28:01.302Z,17.7
2022-08-22T02:29:03.032Z,17.67
2022-08-22T02:30:04.804Z,17.65
2022-08-22T02:31:06.532Z,17.64
2022-08-22T02:32:08.238Z,17.61
2022-08-22T02:33:10.000Z,17.61
2022-08-22T02:34:11.730Z,17.59
2022-08-22T02:35:13.458Z,17.58
2022-08-22T02:36:15.188Z,17.57
2022-08-22T02:37:16.946Z,17.56
2022-08-22T02:38:18.678Z,17.56
2022-08-22T02:39:20.409Z,17.54
2022-08-22T02:40:22.188Z,17.54
2022-08-22T02:41:23.878Z,17.53
2022-08-22T02:42:25.618Z,17.52
2022-08-22T02:43:27.582Z,17.52
2022-08-22T02:44:29.081Z,17.51
2022-08-22T02:45:30.805Z,17.5
2022-08-22T02:46:32.545Z,17.5
2022-08-22T02:47:34.283Z,17.48
2022-08-22T02:48:36.022Z,17.47
2022-08-22T02:49:44.056Z,17.46
2022-08-22T02:50:39.481Z,17.44
2022-08-22T02:51:41.272Z,17.43
2022-08-22T02:52:42.957Z,17.41
2022-08-22T02:53:44.699Z,17.39
2022-08-22T02:54:46.427Z,17.37
2022-08-22T02:55:48.142Z,17.34
2022-08-22T02:56:49.897Z,17.32
2022-08-22T02:57:51.618Z,17.3
2022-08-22T02:58:53.356Z,17.27
2022-08-22T02:59:55.078Z,17.25
2022-08-22T03:00:56.852Z,17.22
2022-08-22T03:01:58.574Z,17.2
2022-08-22T03:03:00.365Z,17.17
2022-08-22T03:04:02.290Z,17.15
2022-08-22T03:05:03.757Z,17.12
2022-08-22T03:06:05.350Z,17.09
2022-08-22T03:07:07.087Z,17.07
2022-08-22T03:08:08.817Z,17.05
2022-08-22T03:09:10.559Z,17.03
2022-08-22T03:10:12.283Z,17.01
2022-08-22T03:11:14.029Z,16.98
2022-08-22T03:12:15.768Z,16.97
2022-08-22T03:13:17.505Z,16.95
2022-08-22T03:14:19.240Z,16.92
2022-08-22T03:15:20.969Z,16.91
2022-08-22T03:16:22.700Z,16.9
2022-08-22T03:17:24.440Z,16.87
2022-08-22T03:18:26.162Z,16.86
2022-08-22T03:19:27.906Z,16.85
2022-08-22T03:20:29.645Z,16.84
2022-08-22T03:21:31.380Z,16.82
2022-08-22T03:22:33.122Z,16.81
2022-08-22T03:23:34.865Z,16.79
2022-08-22T03:24:36.615Z,16.78
2022-08-22T03:25:38.348Z,16.77
2022-08-22T03:26:40.111Z,16.76
2022-08-22T03:27:41.880Z,16.75
2022-08-22T03:28:59.157Z,16.74
2022-08-22T03:29:45.254Z,16.72
2022-08-22T03:30:46.990Z,16.71
2022-08-22T03:31:48.721Z,16.69
2022-08-22T03:32:50.466Z,16.69
2022-08-22T03:33:52.190Z,16.67
2022-08-22T03:34:53.942Z,16.65
2022-08-22T03:35:55.664Z,16.63
2022-08-22T03:36:57.403Z,16.61
2022-08-22T03:37:59.337Z,16.59
2022-08-22T03:39:00.877Z,16.57
2022-08-22T03:40:02.871Z,16.55
2022-08-22T03:41:04.332Z,16.53
2022-08-22T03:42:06.086Z,16.52
2022-08-22T03:43:07.830Z,16.48
2022-08-22T03:44:09.621Z,16.47
2022-08-22T03:45:11.301Z,16.45
2022-08-22T03:46:13.018Z,16.43
2022-08-22T03:47:14.752Z,16.43
2022-08-22T03:48:16.493Z,16.41
2022-08-22T03:49:18.222Z,16.39
2022-08-22T03:50:19.963Z,16.38
2022-08-22T03:51:21.730Z,16.37
2022-08-22T03:52:23.426Z,16.36
2022-08-22T03:53:25.180Z,16.35
2022-08-22T03:54:30.429Z,16.35
2022-08-22T03:55:28.639Z,16.33
2022-08-22T03:56:30.364Z,16.34
2022-08-22T03:57:32.099Z,16.34
2022-08-22T03:58:33.839Z,16.33
2022-08-22T03:59:35.580Z,16.33
2022-08-22T04:00:37.361Z,16.33
2022-08-22T04:01:39.038Z,16.33
2022-08-22T04:02:43.117Z,16.34
2022-08-22T04:03:42.535Z,16.33
2022-08-22T04:04:44.242Z,16.35
2022-08-22T04:05:45.989Z,16.34
2022-08-22T04:06:48.352Z,16.34
2022-08-22T04:07:49.446Z,16.35
2022-08-22T04:08:51.201Z,16.35
2022-08-22T04:09:52.915Z,16.35
2022-08-22T04:10:54.651Z,16.36
2022-08-22T04:11:56.390Z,16.36
2022-08-22T04:12:58.126Z,16.37
2022-08-22T04:13:59.854Z,16.37
2022-08-22T04:15:01.624Z,16.36
2022-08-22T04:16:08.350Z,16.37
2022-08-22T04:17:05.061Z,16.37
2022-08-22T04:18:06.794Z,16.38
2022-08-22T04:19:08.536Z,16.38
2022-08-22T04:20:10.260Z,16.39
2022-08-22T04:21:11.998Z,16.4
2022-08-22T04:22:13.823Z,16.4
2022-08-22T04:23:15.460Z,16.41
2022-08-22T04:24:17.221Z,16.41
2022-08-22T04:25:18.939Z,16.42
2022-08-22T04:26:20.705Z,16.42
2022-08-22T04:27:22.479Z,16.42
2022-08-22T04:28:24.140Z,16.43
2022-08-22T04:29:25.885Z,16.43
2022-08-22T04:30:27.606Z,16.44
2022-08-22T04:31:29.340Z,16.44
2022-08-22T04:32:31.073Z,16.44
2022-08-22T04:33:32.817Z,16.45
2022-08-22T04:34:34.573Z,16.45
2022-08-22T04:35:36.287Z,16.46
2022-08-22T04:36:38.022Z,16.46
2022-08-22T04:37:39.852Z,16.46
2022-08-22T04:38:41.490Z,16.47
2022-08-22T04:39:43.257Z,16.48
2022-08-22T04:40:44.965Z,16.48
2022-08-22T04:41:46.702Z,16.49
2022-08-22T04:42:48.432Z,16.5
2022-08-22T04:43:50.171Z,16.52
2022-08-22T04:44:51.912Z,16.53
2022-08-22T04:45:53.638Z,16.54
2022-08-22T04:46:55.379Z,16.56
2022-08-22T04:47:57.188Z,16.58
2022-08-22T04:48:58.848Z,16.59
2022-08-22T04:50:00.583Z,16.62
2022-08-22T04:51:05.335Z,16.63
2022-08-22T04:52:04.066Z,16.65
2022-08-22T04:53:05.779Z,16.68
2022-08-22T04:54:07.525Z,16.71
2022-08-22T04:55:09.247Z,16.76
2022-08-22T04:56:11.002Z,16.79
2022-08-22T04:57:12.729Z,16.82
2022-08-22T04:58:14.460Z,16.86
2022-08-22T04:59:16.194Z,16.92
2022-08-22T05:00:17.927Z,16.96
2022-08-22T05:01:19.707Z,17
2022-08-22T05:02:21.402Z,17.03
2022-08-22T05:03:23.154Z,17.08
2022-08-22T05:04:24.895Z,17.11
2022-08-22T05:05:26.602Z,17.15
2022-08-22T05:06:28.343Z,17.18
2022-08-22T05:07:35.921Z,17.21
2022-08-22T05:08:31.813Z,17.23
2022-08-22T05:09:33.543Z,17.27
2022-08-22T05:10:35.277Z,17.29
2022-08-22T05:11:37.013Z,17.31
2022-08-22T05:12:38.735Z,17.34
2022-08-22T05:13:40.480Z,17.36
2022-08-22T05:14:42.225Z,17.38
2022-08-22T05:15:43.950Z,17.39
2022-08-22T05:16:45.684Z,17.41
2022-08-22T05:17:47.421Z,17.43
2022-08-22T05:18:49.150Z,17.46
2022-08-22T05:19:50.897Z,17.48
2022-08-22T05:20:52.625Z,17.49
2022-08-22T05:21:54.365Z,17.51
2022-08-22T05:22:56.078Z,17.54
2022-08-22T05:23:57.822Z,17.55
2022-08-22T05:24:59.577Z,17.58
2022-08-22T05:26:01.282Z,17.59
2022-08-22T05:27:03.024Z,17.61
2022-08-22T05:28:04.769Z,17.61
2022-08-22T05:29:06.531Z,17.63
2022-08-22T05:30:08.235Z,17.64
2022-08-22T05:31:09.968Z,17.65
2022-08-22T05:32:11.694Z,17.66
2022-08-22T05:33:13.446Z,17.67
2022-08-22T05:34:15.182Z,17.69
2022-08-22T05:35:16.946Z,17.7
2022-08-22T05:36:18.937Z,17.71
2022-08-22T05:37:20.392Z,17.72
2022-08-22T05:38:22.112Z,17.73
2022-08-22T05:39:25.428Z,17.75
2022-08-22T05:40:25.580Z,17.76
2022-08-22T05:41:27.314Z,17.78
2022-08-22T05:42:29.047Z,17.8
2022-08-22T05:43:30.792Z,17.81
2022-08-22T05:44:32.533Z,17.83
2022-08-22T05:45:34.255Z,17.85
2022-08-22T05:46:35.985Z,17.87
2022-08-22T05:47:37.724Z,17.89
2022-08-22T05:48:39.453Z,17.92
2022-08-22T05:49:41.196Z,17.93
2022-08-22T05:50:42.954Z,17.96
2022-08-22T05:51:44.653Z,17.98
2022-08-22T05:52:46.384Z,18.01
2022-08-22T05:53:48.104Z,18.03
2022-08-22T05:54:49.866Z,18.06
2022-08-22T05:55:51.588Z,18.1
2022-08-22T05:56:53.323Z,18.12
2022-08-22T05:57:55.073Z,18.14
2022-08-22T05:58:56.792Z,18.19
2022-08-22T05:59:58.542Z,18.21
2022-08-22T06:01:00.264Z,18.25
2022-08-22T06:02:02.146Z,18.27
2022-08-22T06:03:03.733Z,18.3
2022-08-22T06:04:05.469Z,18.33
2022-08-22T06:05:11.421Z,18.35
2022-08-22T06:06:08.941Z,18.38
2022-08-22T06:07:10.672Z,18.4
2022-08-22T06:08:12.405Z,18.43
2022-08-22T06:09:14.144Z,18.46
2022-08-22T06:10:15.874Z,18.49
2022-08-22T06:11:17.627Z,18.53
2022-08-22T06:12:22.241Z,18.55
2022-08-22T06:13:24.737Z,18.58
2022-08-22T06:14:24.775Z,18.61
2022-08-22T06:15:24.550Z,18.64
2022-08-22T06:16:26.281Z,18.67
2022-08-22T06:17:28.017Z,18.7
2022-08-22T06:18:29.740Z,18.73
2022-08-22T06:19:31.501Z,18.77
2022-08-22T06:20:33.212Z,18.79
2022-08-22T06:21:38.513Z,18.84
2022-08-22T06:22:36.682Z,18.87
2022-08-22T06:23:38.428Z,18.92
2022-08-22T06:24:40.169Z,18.96
2022-08-22T06:25:41.887Z,19.02
2022-08-22T06:26:47.105Z,19.08
2022-08-22T06:27:45.366Z,19.16
2022-08-22T06:28:55.394Z,19.23
2022-08-22T06:29:48.837Z,19.34
2022-08-22T06:30:50.554Z,19.43
2022-08-22T06:31:52.298Z,19.55
2022-08-22T06:32:59.820Z,19.67
2022-08-22T06:33:55.761Z,19.81
2022-08-22T06:34:57.522Z,19.98
2022-08-22T06:35:59.237Z,20.22
2022-08-22T06:37:00.981Z,20.35
2022-08-22T06:38:02.723Z,20.44
2022-08-22T06:38:18.193Z,20.46
2022-08-22T06:39:19.894Z,20.6
2022-08-22T06:40:21.767Z,20.75
2022-08-22T06:41:23.340Z,20.82
2022-08-22T06:42:25.062Z,20.94
2022-08-22T06:43:26.806Z,20.94
2022-08-22T06:44:28.551Z,21
2022-08-22T06:45:30.270Z,20.97
2022-08-22T06:46:32.015Z,20.97
2022-08-22T06:47:33.750Z,20.99
2022-08-22T06:48:35.481Z,21.01
2022-08-22T06:49:37.216Z,21.02
2022-08-22T06:50:38.959Z,21.03
2022-08-22T06:51:40.732Z,21.04
2022-08-22T06:52:42.418Z,21.08
2022-08-22T06:53:48.067Z,21.11
2022-08-22T06:54:45.895Z,21.16
2022-08-22T06:55:47.620Z,21.2
2022-08-22T06:56:49.380Z,21.24
2022-08-22T06:57:51.088Z,21.28
2022-08-22T06:58:52.820Z,21.32
2022-08-22T06:59:54.558Z,21.35
2022-08-22T07:01:05.658Z,21.39
2022-08-22T07:01:58.123Z,21.42
2022-08-22T07:02:59.756Z,21.44
2022-08-22T07:04:01.487Z,21.49
2022-08-22T07:05:03.240Z,21.52
2022-08-22T07:06:04.948Z,21.56
2022-08-22T07:07:06.711Z,21.6
2022-08-22T07:08:08.436Z,21.65
2022-08-22T07:09:10.224Z,21.69
2022-08-22T07:10:11.897Z,21.74
2022-08-22T07:11:13.627Z,21.79
2022-08-22T07:12:15.370Z,21.86
2022-08-22T07:13:17.104Z,21.95
2022-08-22T07:14:18.832Z,22
2022-08-22T07:15:20.576Z,22.07
2022-08-22T07:16:22.317Z,22.11
2022-08-22T07:17:24.042Z,22.22
2022-08-22T07:18:25.774Z,22.39
2022-08-22T07:19:27.518Z,22.54
2022-08-22T07:20:29.240Z,22.67
2022-08-22T07:21:30.977Z,22.78
2022-08-22T07:22:32.710Z,22.94
2022-08-22T07:23:34.456Z,23.03
2022-08-22T07:24:36.186Z,23.1
2022-08-22T07:25:37.921Z,23.1
2022-08-22T07:26:39.654Z,23.14
2022-08-22T07:27:41.390Z,23.19
2022-08-22T07:28:51.092Z,23.25
2022-08-22T07:29:44.860Z,23.33
2022-08-22T07:30:46.590Z,23.41
2022-08-22T07:31:48.327Z,23.42
2022-08-22T07:32:50.065Z,23.46
2022-08-22T07:33:51.789Z,23.47
2022-08-22T07:34:53.541Z,23.46
2022-08-22T07:35:55.261Z,23.46
2022-08-22T07:36:56.991Z,23.47
2022-08-22T07:37:58.852Z,23.44
2022-08-22T07:39:00.463Z,23.44
2022-08-22T07:40:02.336Z,23.42
2022-08-22T07:41:03.929Z,23.35
2022-08-22T07:42:05.668Z,23.28
2022-08-22T07:43:07.409Z,23.2
2022-08-22T07:44:09.143Z,23.16
2022-08-22T07:45:10.889Z,23.07
2022-08-22T07:46:12.604Z,23.03
2022-08-22T07:47:14.347Z,23
2022-08-22T07:48:25.089Z,22.95
2022-08-22T07:49:17.813Z,22.9
2022-08-22T07:50:19.542Z,22.85
2022-08-22T07:51:21.296Z,22.81
2022-08-22T07:52:23.030Z,22.75
2022-08-22T07:53:24.756Z,22.72
2022-08-22T07:54:27.212Z,22.69
2022-08-22T07:55:28.233Z,22.68
2022-08-22T07:56:29.944Z,22.68
2022-08-22T07:57:31.685Z,22.69
2022-08-22T07:58:33.419Z,22.69
2022-08-22T07:59:35.172Z,22.68
2022-08-22T08:00:36.885Z,22.68
2022-08-22T08:01:38.694Z,22.68
2022-08-22T08:02:40.402Z,22.68
2022-08-22T08:03:42.091Z,22.72
2022-08-22T08:04:43.851Z,22.74
2022-08-22T08:05:45.553Z,22.85
2022-08-22T08:06:47.293Z,22.99
2022-08-22T08:07:49.021Z,23.11
2022-08-22T08:08:50.750Z,23.24
2022-08-22T08:09:52.500Z,23.36
2022-08-22T08:10:54.225Z,23.47
2022-08-22T08:11:55.965Z,23.59
2022-08-22T08:13:02.164Z,23.7
2022-08-22T08:13:59.440Z,23.79
2022-08-22T08:15:01.172Z,23.91
2022-08-22T08:16:03.911Z,23.99
2022-08-22T08:17:04.636Z,24.04
2022-08-22T08:18:06.417Z,24.1
2022-08-22T08:19:08.106Z,24.11
2022-08-22T08:20:09.838Z,24.15
2022-08-22T08:21:11.573Z,24.14
2022-08-22T08:22:13.310Z,24.18
2022-08-22T08:23:15.050Z,24.23
2022-08-22T08:24:16.778Z,24.24
2022-08-22T08:25:18.523Z,24.25
2022-08-22T08:26:20.251Z,24.25
2022-08-22T08:27:21.983Z,24.24
2022-08-22T08:28:23.711Z,24.24
2022-08-22T08:29:25.461Z,24.22
2022-08-22T08:30:27.171Z,24.19
2022-08-22T08:31:28.920Z,24.17
2022-08-22T08:32:30.646Z,24.12
2022-08-22T08:33:32.377Z,24.08
2022-08-22T08:34:34.491Z,24.04
2022-08-22T08:36:02.810Z,24
2022-08-22T08:36:37.585Z,23.96
2022-08-22T08:37:39.327Z,23.94
2022-08-22T08:38:41.052Z,23.87
2022-08-22T08:39:42.829Z,23.82
2022-08-22T08:40:44.537Z,23.79
2022-08-22T08:41:46.261Z,23.76
2022-08-22T08:42:47.996Z,23.73
2022-08-22T08:43:49.738Z,23.7
2022-08-22T08:44:51.489Z,23.68
2022-08-22T08:45:53.199Z,23.65
2022-08-22T08:46:55.486Z,23.67
2022-08-22T08:47:56.777Z,23.7
2022-08-22T08:48:58.400Z,23.7
2022-08-22T08:50:00.164Z,23.68
2022-08-22T08:51:02.150Z,23.69
2022-08-22T08:52:03.606Z,23.69
2022-08-22T08:53:05.433Z,23.7
2022-08-22T08:54:07.082Z,23.7
2022-08-22T08:55:19.708Z,23.74
2022-08-22T08:56:10.826Z,23.78
2022-08-22T08:57:12.290Z,23.81
2022-08-22T08:58:14.059Z,23.87
2022-08-22T08:59:15.751Z,23.95
2022-08-22T09:00:17.567Z,23.99
2022-08-22T09:01:19.514Z,24.03
2022-08-22T09:02:23.664Z,24.1
2022-08-22T09:03:30.242Z,24.17
2022-08-22T09:04:24.435Z,24.24
2022-08-22T09:04:40.748Z,24.26
2022-08-22T09:05:41.615Z,24.29
2022-08-22T09:06:43.338Z,24.36
2022-08-22T09:07:45.063Z,24.42
2022-08-22T09:08:46.804Z,24.47
2022-08-22T09:09:52.407Z,24.53
2022-08-22T09:10:50.269Z,24.57
2022-08-22T09:11:52.047Z,24.64
2022-08-22T09:12:56.394Z,24.67
2022-08-22T09:13:55.472Z,24.74
2022-08-22T09:14:57.230Z,24.81
2022-08-22T09:16:04.598Z,24.88
2022-08-22T09:17:00.684Z,24.93
2022-08-22T09:18:02.415Z,24.95
2022-08-22T09:19:04.161Z,24.99
2022-08-22T09:20:15.523Z,25.04
2022-08-22T09:21:07.620Z,25.07
2022-08-22T09:22:14.647Z,25.12
2022-08-22T09:23:11.134Z,25.16
2022-08-22T09:24:12.824Z,25.2
2022-08-22T09:25:14.560Z,25.26
2022-08-22T09:26:16.302Z,25.29
2022-08-22T09:27:18.025Z,25.35
2022-08-22T09:28:19.768Z,25.39
2022-08-22T09:29:21.503Z,25.43
2022-08-22T09:30:27.613Z,25.5
2022-08-22T09:31:44.919Z,25.56
2022-08-22T09:32:26.726Z,25.62
2022-08-22T09:33:29.461Z,25.68
2022-08-22T09:34:30.179Z,25.73
2022-08-22T09:35:32.082Z,25.8
2022-08-22T09:36:33.645Z,25.89
2022-08-22T09:37:35.380Z,25.96
2022-08-22T09:38:37.117Z,26.03
2022-08-22T09:39:38.918Z,26.11
2022-08-22T09:40:40.581Z,26.17
2022-08-22T09:41:42.310Z,26.23
2022-08-22T09:42:44.992Z,26.29
2022-08-22T09:43:48.550Z,26.34
2022-08-22T09:44:47.545Z,26.39
2022-08-22T09:45:50.059Z,26.43
2022-08-22T09:46:51.000Z,26.47
2022-08-22T09:47:52.725Z,26.52
2022-08-22T09:48:54.460Z,26.56
2022-08-22T09:49:56.200Z,26.6
2022-08-22T09:51:08.314Z,26.67
2022-08-22T09:52:01.796Z,26.72
2022-08-22T09:53:01.462Z,26.79
2022-08-22T09:54:03.135Z,26.84
2022-08-22T09:55:08.665Z,26.9
2022-08-22T09:56:11.623Z,26.93
2022-08-22T09:57:08.339Z,26.97
2022-08-22T09:58:11.397Z,27.01
2022-08-22T09:59:11.814Z,27.03
2022-08-22T10:00:13.690Z,27.07
2022-08-22T10:01:15.361Z,27.11
2022-08-22T10:02:17.090Z,27.13
2022-08-22T10:03:18.753Z,27.17
2022-08-22T10:04:20.490Z,27.18
2022-08-22T10:05:41.080Z,27.21
2022-08-22T10:06:23.960Z,27.25
2022-08-22T10:07:25.698Z,27.28
2022-08-22T10:08:27.435Z,27.35
2022-08-22T10:09:31.342Z,27.42
2022-08-22T10:10:30.910Z,27.54
2022-08-22T10:11:32.633Z,27.62
2022-08-22T10:12:36.026Z,27.68
2022-08-22T10:13:36.106Z,27.72
2022-08-22T10:14:37.867Z,27.84
2022-08-22T10:15:39.585Z,27.91
2022-08-22T10:16:41.350Z,27.96
2022-08-22T10:17:43.039Z,27.99
2022-08-22T10:18:52.890Z,28.05
2022-08-22T10:19:46.510Z,28.04
2022-08-22T10:20:48.287Z,28.07
2022-08-22T10:21:49.983Z,28.07
2022-08-22T10:22:51.715Z,28.07
2022-08-22T10:23:53.457Z,28.09
2022-08-22T10:24:55.191Z,28.1
2022-08-22T10:25:56.924Z,28.08
2022-08-22T10:26:58.653Z,28.08
2022-08-22T10:28:00.402Z,28.08
2022-08-22T10:29:02.134Z,28.05
2022-08-22T10:30:03.979Z,28.07
2022-08-22T10:31:05.619Z,28.09
2022-08-22T10:32:14.452Z,28.12
2022-08-22T10:33:09.063Z,28.14
2022-08-22T10:34:10.805Z,28.17
2022-08-22T10:35:12.552Z,28.11
2022-08-22T10:36:14.262Z,28.14
2022-08-22T10:37:15.995Z,28.14
2022-08-22T10:38:17.739Z,28.12
2022-08-22T10:39:19.477Z,28.11
2022-08-22T10:40:21.277Z,28.09
2022-08-22T10:41:22.945Z,28.09
2022-08-22T10:42:24.685Z,28.09
2022-08-22T10:43:28.880Z,28.01
2022-08-22T10:44:28.152Z,28.04
2022-08-22T10:45:36.921Z,28.03
2022-08-22T10:46:31.623Z,27.97
2022-08-22T10:47:33.360Z,28
2022-08-22T10:48:35.186Z,27.93
2022-08-22T10:49:36.852Z,27.95
2022-08-22T10:50:38.573Z,27.94
2022-08-22T10:51:40.313Z,27.94
2022-08-22T10:52:42.038Z,27.93
2022-08-22T10:53:43.772Z,27.93
2022-08-22T10:54:45.527Z,27.95
2022-08-22T10:55:47.253Z,27.96
2022-08-22T10:56:48.971Z,27.97
2022-08-22T10:57:52.684Z,27.98
2022-08-22T10:58:52.452Z,28
2022-08-22T10:59:54.193Z,28.03
2022-08-22T11:00:55.978Z,28.07
2022-08-22T11:01:57.706Z,28.12
2022-08-22T11:02:59.569Z,28.18
2022-08-22T11:04:01.124Z,28.22
2022-08-22T11:05:02.911Z,28.27
2022-08-22T11:06:04.611Z,28.32
2022-08-22T11:07:06.339Z,28.38
2022-08-22T11:08:08.086Z,28.44
2022-08-22T11:09:09.799Z,28.5
2022-08-22T11:10:11.544Z,28.53
2022-08-22T11:11:13.275Z,28.59
2022-08-22T11:12:15.000Z,28.65
2022-08-22T11:13:16.736Z,28.68
2022-08-22T11:14:18.468Z,28.73
2022-08-22T11:15:28.486Z,28.76
2022-08-22T11:16:21.936Z,28.8
2022-08-22T11:17:30.998Z,28.83
2022-08-22T11:18:25.430Z,28.86
2022-08-22T11:19:27.146Z,28.88
2022-08-22T11:20:28.875Z,28.94
2022-08-22T11:21:30.911Z,28.98
2022-08-22T11:22:32.347Z,28.99
2022-08-22T11:23:34.143Z,29.01
2022-08-22T11:24:46.594Z,28.99
2022-08-22T11:25:39.142Z,29
2022-08-22T11:26:47.034Z,28.95
2022-08-22T11:27:41.051Z,28.88
2022-08-22T11:28:42.755Z,28.84
2022-08-22T11:29:44.492Z,28.77
2022-08-22T11:30:46.221Z,28.72
2022-08-22T11:31:51.643Z,28.63
2022-08-22T11:32:49.694Z,28.58
2022-08-22T11:33:51.428Z,28.54
2022-08-22T11:34:53.807Z,28.53
2022-08-22T11:35:54.904Z,28.51
2022-08-22T11:36:56.626Z,28.54
2022-08-22T11:37:58.366Z,28.58
2022-08-22T11:39:00.094Z,28.61
2022-08-22T11:40:01.928Z,28.66
2022-08-22T11:41:04.584Z,28.7
2022-08-22T11:42:05.305Z,28.72
2022-08-22T11:43:10.639Z,28.75
2022-08-22T11:44:08.772Z,28.77
2022-08-22T11:45:11.654Z,28.78
2022-08-22T11:46:12.246Z,28.75
2022-08-22T11:47:13.980Z,28.77
2022-08-22T11:48:15.721Z,28.79
2022-08-22T11:49:18.848Z,28.81
2022-08-22T11:50:19.202Z,28.85
2022-08-22T11:51:24.774Z,28.9
2022-08-22T11:52:22.656Z,28.95
2022-08-22T11:53:24.391Z,29.01
2022-08-22T11:54:31.084Z,29.06
2022-08-22T11:55:32.718Z,29.11
2022-08-22T11:56:29.584Z,29.16
2022-08-22T11:57:31.324Z,29.2
2022-08-22T11:58:33.066Z,29.24
2022-08-22T11:59:34.798Z,29.3
2022-08-22T12:00:36.531Z,29.31
2022-08-22T12:01:38.376Z,29.33
2022-08-22T12:02:40.051Z,29.36
2022-08-22T12:03:41.880Z,29.39
2022-08-22T12:04:44.074Z,29.41
2022-08-22T12:05:45.225Z,29.43
2022-08-22T12:06:46.994Z,29.36
2022-08-22T12:07:49.137Z,29.29
2022-08-22T12:08:50.401Z,29.28
2022-08-22T12:09:52.159Z,29.27
2022-08-22T12:10:54.436Z,29.23
2022-08-22T12:11:55.616Z,29.21
2022-08-22T12:12:57.349Z,29.18
2022-08-22T12:14:06.200Z,29.15
2022-08-22T12:15:00.821Z,29.14
2022-08-22T12:16:05.604Z,29.11
2022-08-22T12:17:04.292Z,29.12
2022-08-22T12:18:06.024Z,29.14
2022-08-22T12:19:07.781Z,29.14
2022-08-22T12:20:17.389Z,29.16
2022-08-22T12:21:11.218Z,29.17
2022-08-22T12:22:12.994Z,29.18
2022-08-22T12:23:14.705Z,29.18
2022-08-22T12:24:20.994Z,29.2
2022-08-22T12:25:18.177Z,29.22
2022-08-22T12:26:22.011Z,29.26
2022-08-22T12:27:28.859Z,29.31
2022-08-22T12:28:23.385Z,29.37
2022-08-22T12:29:33.656Z,29.42
2022-08-22T12:30:26.843Z,29.46
2022-08-22T12:31:28.577Z,29.51
2022-08-22T12:32:30.324Z,29.56
2022-08-22T12:33:33.083Z,29.6
2022-08-22T12:34:33.772Z,29.66
2022-08-22T12:35:35.517Z,29.7
2022-08-22T12:36:37.242Z,29.74
2022-08-22T12:37:52.402Z,29.78
2022-08-22T12:38:40.718Z,29.81
2022-08-22T12:39:42.479Z,29.84
2022-08-22T12:40:44.181Z,29.86
2022-08-22T12:41:46.767Z,29.89
2022-08-22T12:42:47.663Z,29.91
2022-08-22T12:43:49.747Z,29.94
2022-08-22T12:44:51.127Z,29.96
2022-08-22T12:45:52.859Z,29.98
2022-08-22T12:46:54.600Z,30.03
2022-08-22T12:47:56.364Z,30.05
2022-08-22T12:48:58.070Z,30.1
2022-08-22T12:49:59.823Z,30.09
2022-08-22T12:51:17.660Z,30.11
2022-08-22T12:52:04.298Z,30.12
2022-08-22T12:53:05.005Z,30.13
2022-08-22T12:54:06.734Z,30.16
2022-08-22T12:55:08.478Z,30.19
2022-08-22T12:56:10.503Z,30.22
2022-08-22T12:57:23.937Z,30.22
2022-08-22T12:58:13.686Z,30.22
2022-08-22T12:59:15.405Z,30.22
2022-08-22T13:00:17.155Z,30.22
2022-08-22T13:01:18.926Z,30.19
2022-08-22T13:02:20.616Z,30.15
2022-08-22T13:03:22.355Z,30.15
2022-08-22T13:04:33.419Z,30.09
2022-08-22T13:05:26.221Z,30.1
2022-08-22T13:06:27.727Z,30.09
2022-08-22T13:07:29.295Z,30.07
2022-08-22T13:08:31.054Z,30.06
2022-08-22T13:09:32.765Z,30.02
2022-08-22T13:10:34.521Z,30.01
2022-08-22T13:11:36.239Z,29.98
2022-08-22T13:12:37.974Z,29.91
2022-08-22T13:13:39.755Z,29.89